sensor_id;sensor_type;location;lat;lon;timestamp;P1;durP1;ratioP1;P2;durP2;ratioP2
42600;SDS011;28229;48.856;9.088;2023-03-23T00:00:53;1.13;;;1.03;;
42600;SDS011;28229;48.856;9.088;2023-03-23T00:03:20;2.20;;;1.17;;
42600;SDS011;28229;48.856;9.088;2023-03-23T00:05:47;1.43;;;0.90;;
42600;SDS011;28229;48.856;9.088;2023-03-23T00:08:17;1.53;;;1.10;;
42600;SDS011;28229;48.856;9.088;2023-03-23T00:10:49;1.57;;;1.20;;
42600;SDS011;28229;48.856;9.088;2023-03-23T00:13:23;1.10;;;0.97;;
42600;SDS011;28229;48.856;9.088;2023-03-23T00:15:49;2.40;;;1.10;;
42600;SDS011;28229;48.856;9.088;2023-03-23T00:18:20;1.00;;;1.00;;
42600;SDS011;28229;48.856;9.088;2023-03-23T00:20:51;1.30;;;1.20;;
42600;SDS011;28229;48.856;9.088;2023-03-23T00:23:21;2.50;;;1.30;;
42600;SDS011;28229;48.856;9.088;2023-03-23T00:25:50;1.80;;;1.10;;
42600;SDS011;28229;48.856;9.088;2023-03-23T00:28:22;1.00;;;1.00;;
42600;SDS011;28229;48.856;9.088;2023-03-23T00:30:54;1.30;;;1.20;;
42600;SDS011;28229;48.856;9.088;2023-03-23T00:33:29;1.40;;;1.30;;
42600;SDS011;28229;48.856;9.088;2023-03-23T00:35:59;2.63;;;1.20;;
42600;SDS011;28229;48.856;9.088;2023-03-23T00:38:25;1.20;;;1.10;;
42600;SDS011;28229;48.856;9.088;2023-03-23T00:40:53;1.67;;;1.10;;
42600;SDS011;28229;48.856;9.088;2023-03-23T00:43:21;1.43;;;1.20;;
42600;SDS011;28229;48.856;9.088;2023-03-23T00:45:50;1.30;;;1.20;;
42600;SDS011;28229;48.856;9.088;2023-03-23T00:48:20;1.87;;;1.40;;
42600;SDS011;28229;48.856;9.088;2023-03-23T00:50:47;1.50;;;1.27;;
42600;SDS011;28229;48.856;9.088;2023-03-23T00:53:14;1.63;;;1.20;;
42600;SDS011;28229;48.856;9.088;2023-03-23T00:55:42;1.37;;;1.20;;
42600;SDS011;28229;48.856;9.088;2023-03-23T00:58:10;1.27;;;1.17;;
42600;SDS011;28229;48.856;9.088;2023-03-23T01:00:37;1.37;;;1.23;;
42600;SDS011;28229;48.856;9.088;2023-03-23T01:03:05;1.13;;;1.13;;
42600;SDS011;28229;48.856;9.088;2023-03-23T01:05:36;1.50;;;1.40;;
42600;SDS011;28229;48.856;9.088;2023-03-23T01:08:02;1.83;;;1.07;;
42600;SDS011;28229;48.856;9.088;2023-03-23T01:10:30;1.60;;;1.30;;
42600;SDS011;28229;48.856;9.088;2023-03-23T01:13:05;2.17;;;1.23;;
42600;SDS011;28229;48.856;9.088;2023-03-23T01:15:32;1.10;;;1.00;;
42600;SDS011;28229;48.856;9.088;2023-03-23T01:17:58;1.40;;;1.30;;
42600;SDS011;28229;48.856;9.088;2023-03-23T01:20:25;1.23;;;1.10;;
42600;SDS011;28229;48.856;9.088;2023-03-23T01:22:54;1.23;;;1.13;;
42600;SDS011;28229;48.856;9.088;2023-03-23T01:25:29;1.63;;;1.10;;
42600;SDS011;28229;48.856;9.088;2023-03-23T01:27:58;1.87;;;1.40;;
42600;SDS011;28229;48.856;9.088;2023-03-23T01:30:26;2.50;;;1.17;;
42600;SDS011;28229;48.856;9.088;2023-03-23T01:32:53;1.20;;;1.10;;
42600;SDS011;28229;48.856;9.088;2023-03-23T01:35:21;1.43;;;1.33;;
42600;SDS011;28229;48.856;9.088;2023-03-23T01:37:48;1.90;;;1.40;;
42600;SDS011;28229;48.856;9.088;2023-03-23T01:40:14;1.27;;;1.20;;
42600;SDS011;28229;48.856;9.088;2023-03-23T01:42:44;1.80;;;1.30;;
42600;SDS011;28229;48.856;9.088;2023-03-23T01:47:49;1.57;;;1.47;;
42600;SDS011;28229;48.856;9.088;2023-03-23T01:50:23;1.33;;;1.30;;
42600;SDS011;28229;48.856;9.088;2023-03-23T01:52:52;1.63;;;1.50;;
42600;SDS011;28229;48.856;9.088;2023-03-23T01:55:20;2.27;;;1.30;;
42600;SDS011;28229;48.856;9.088;2023-03-23T01:57:49;2.13;;;1.30;;
42600;SDS011;28229;48.856;9.088;2023-03-23T02:00:16;2.53;;;1.40;;
42600;SDS011;28229;48.856;9.088;2023-03-23T02:02:51;1.63;;;1.37;;
42600;SDS011;28229;48.856;9.088;2023-03-23T02:05:26;1.40;;;1.30;;
42600;SDS011;28229;48.856;9.088;2023-03-23T02:08:10;1.97;;;1.30;;
42600;SDS011;28229;48.856;9.088;2023-03-23T02:10:39;2.00;;;1.30;;
42600;SDS011;28229;48.856;9.088;2023-03-23T02:13:07;1.67;;;1.40;;
42600;SDS011;28229;48.856;9.088;2023-03-23T02:15:38;1.50;;;1.40;;
42600;SDS011;28229;48.856;9.088;2023-03-23T02:21:20;2.00;;;1.30;;
42600;SDS011;28229;48.856;9.088;2023-03-23T02:24:17;1.50;;;1.40;;
42600;SDS011;28229;48.856;9.088;2023-03-23T02:27:09;1.97;;;1.50;;
42600;SDS011;28229;48.856;9.088;2023-03-23T02:35:28;2.17;;;1.40;;
42600;SDS011;28229;48.856;9.088;2023-03-23T02:38:00;1.77;;;1.40;;
42600;SDS011;28229;48.856;9.088;2023-03-23T02:40:32;1.57;;;1.30;;
42600;SDS011;28229;48.856;9.088;2023-03-23T02:43:05;2.73;;;1.60;;
42600;SDS011;28229;48.856;9.088;2023-03-23T02:45:35;2.03;;;1.63;;
42600;SDS011;28229;48.856;9.088;2023-03-23T02:48:04;1.77;;;1.40;;
42600;SDS011;28229;48.856;9.088;2023-03-23T02:50:32;1.50;;;1.40;;
42600;SDS011;28229;48.856;9.088;2023-03-23T02:53:03;1.67;;;1.57;;
42600;SDS011;28229;48.856;9.088;2023-03-23T02:55:35;2.30;;;1.83;;
42600;SDS011;28229;48.856;9.088;2023-03-23T02:58:09;2.90;;;1.70;;
42600;SDS011;28229;48.856;9.088;2023-03-23T03:00:36;1.63;;;1.40;;
42600;SDS011;28229;48.856;9.088;2023-03-23T03:03:05;2.03;;;1.60;;
42600;SDS011;28229;48.856;9.088;2023-03-23T03:05:35;1.50;;;1.40;;
42600;SDS011;28229;48.856;9.088;2023-03-23T03:08:35;1.63;;;1.53;;
42600;SDS011;28229;48.856;9.088;2023-03-23T03:11:11;1.70;;;1.60;;
42600;SDS011;28229;48.856;9.088;2023-03-23T03:13:45;1.50;;;1.40;;
42600;SDS011;28229;48.856;9.088;2023-03-23T03:16:22;1.47;;;1.37;;
42600;SDS011;28229;48.856;9.088;2023-03-23T03:19:13;1.50;;;1.40;;
42600;SDS011;28229;48.856;9.088;2023-03-23T03:21:42;1.90;;;1.60;;
42600;SDS011;28229;48.856;9.088;2023-03-23T03:24:12;1.90;;;1.57;;
42600;SDS011;28229;48.856;9.088;2023-03-23T03:26:42;1.90;;;1.57;;
42600;SDS011;28229;48.856;9.088;2023-03-23T03:29:28;2.30;;;1.53;;
42600;SDS011;28229;48.856;9.088;2023-03-23T03:31:58;1.80;;;1.47;;
42600;SDS011;28229;48.856;9.088;2023-03-23T03:34:27;2.13;;;1.53;;
42600;SDS011;28229;48.856;9.088;2023-03-23T03:36:54;1.67;;;1.57;;
42600;SDS011;28229;48.856;9.088;2023-03-23T03:39:25;2.17;;;1.50;;
42600;SDS011;28229;48.856;9.088;2023-03-23T03:41:53;2.67;;;1.40;;
42600;SDS011;28229;48.856;9.088;2023-03-23T03:44:20;2.10;;;1.60;;
42600;SDS011;28229;48.856;9.088;2023-03-23T03:46:47;1.50;;;1.40;;
42600;SDS011;28229;48.856;9.088;2023-03-23T03:49:13;1.30;;;1.20;;
42600;SDS011;28229;48.856;9.088;2023-03-23T03:51:41;1.40;;;1.30;;
42600;SDS011;28229;48.856;9.088;2023-03-23T03:54:14;1.80;;;1.33;;
42600;SDS011;28229;48.856;9.088;2023-03-23T03:56:41;1.53;;;1.40;;
42600;SDS011;28229;48.856;9.088;2023-03-23T03:59:43;1.40;;;1.30;;
42600;SDS011;28229;48.856;9.088;2023-03-23T04:02:43;1.40;;;1.30;;
42600;SDS011;28229;48.856;9.088;2023-03-23T04:05:19;1.63;;;1.40;;
42600;SDS011;28229;48.856;9.088;2023-03-23T04:07:48;1.47;;;1.37;;
42600;SDS011;28229;48.856;9.088;2023-03-23T04:10:18;1.20;;;1.20;;
42600;SDS011;28229;48.856;9.088;2023-03-23T04:12:48;1.40;;;1.30;;
42600;SDS011;28229;48.856;9.088;2023-03-23T04:15:48;1.47;;;1.20;;
42600;SDS011;28229;48.856;9.088;2023-03-23T04:18:14;1.40;;;1.30;;
42600;SDS011;28229;48.856;9.088;2023-03-23T04:20:44;2.50;;;1.27;;
42600;SDS011;28229;48.856;9.088;2023-03-23T04:23:14;1.87;;;1.43;;
42600;SDS011;28229;48.856;9.088;2023-03-23T04:25:46;1.37;;;1.27;;
42600;SDS011;28229;48.856;9.088;2023-03-23T04:28:13;1.60;;;1.40;;
42600;SDS011;28229;48.856;9.088;2023-03-23T04:30:52;2.83;;;1.60;;
42600;SDS011;28229;48.856;9.088;2023-03-23T04:33:24;1.30;;;1.20;;
42600;SDS011;28229;48.856;9.088;2023-03-23T04:35:54;1.40;;;1.30;;
42600;SDS011;28229;48.856;9.088;2023-03-23T04:38:33;1.63;;;1.40;;
42600;SDS011;28229;48.856;9.088;2023-03-23T04:41:10;1.50;;;1.40;;
42600;SDS011;28229;48.856;9.088;2023-03-23T04:43:49;3.17;;;1.43;;
42600;SDS011;28229;48.856;9.088;2023-03-23T04:47:00;1.53;;;1.40;;
42600;SDS011;28229;48.856;9.088;2023-03-23T04:49:30;1.97;;;1.40;;
42600;SDS011;28229;48.856;9.088;2023-03-23T04:52:08;1.67;;;1.57;;
42600;SDS011;28229;48.856;9.088;2023-03-23T04:54:42;1.40;;;1.30;;
42600;SDS011;28229;48.856;9.088;2023-03-23T04:57:08;1.67;;;1.57;;
42600;SDS011;28229;48.856;9.088;2023-03-23T04:59:38;2.00;;;1.37;;
42600;SDS011;28229;48.856;9.088;2023-03-23T05:02:17;2.50;;;1.40;;
42600;SDS011;28229;48.856;9.088;2023-03-23T05:04:46;1.47;;;1.37;;
42600;SDS011;28229;48.856;9.088;2023-03-23T05:07:17;1.30;;;1.20;;
42600;SDS011;28229;48.856;9.088;2023-03-23T05:09:47;2.30;;;1.40;;
42600;SDS011;28229;48.856;9.088;2023-03-23T05:12:15;5.03;;;1.57;;
42600;SDS011;28229;48.856;9.088;2023-03-23T05:14:49;1.47;;;1.30;;
42600;SDS011;28229;48.856;9.088;2023-03-23T05:17:18;1.87;;;1.40;;
42600;SDS011;28229;48.856;9.088;2023-03-23T05:19:47;1.40;;;1.30;;
42600;SDS011;28229;48.856;9.088;2023-03-23T05:22:40;1.27;;;1.17;;
42600;SDS011;28229;48.856;9.088;2023-03-23T05:25:19;1.30;;;1.20;;
42600;SDS011;28229;48.856;9.088;2023-03-23T05:27:49;2.37;;;1.30;;
42600;SDS011;28229;48.856;9.088;2023-03-23T05:30:37;1.37;;;1.27;;
42600;SDS011;28229;48.856;9.088;2023-03-23T05:33:05;1.53;;;1.30;;
42600;SDS011;28229;48.856;9.088;2023-03-23T05:35:52;1.37;;;1.20;;
42600;SDS011;28229;48.856;9.088;2023-03-23T05:38:25;1.50;;;1.40;;
42600;SDS011;28229;48.856;9.088;2023-03-23T05:40:58;1.40;;;1.30;;
42600;SDS011;28229;48.856;9.088;2023-03-23T05:43:30;1.63;;;1.53;;
42600;SDS011;28229;48.856;9.088;2023-03-23T05:46:12;1.47;;;1.37;;
42600;SDS011;28229;48.856;9.088;2023-03-23T05:48:39;1.37;;;1.27;;
42600;SDS011;28229;48.856;9.088;2023-03-23T05:51:24;2.13;;;1.43;;
42600;SDS011;28229;48.856;9.088;2023-03-23T05:54:25;1.83;;;1.50;;
42600;SDS011;28229;48.856;9.088;2023-03-23T05:57:07;1.77;;;1.50;;
42600;SDS011;28229;48.856;9.088;2023-03-23T05:59:48;2.10;;;1.90;;
42600;SDS011;28229;48.856;9.088;2023-03-23T06:02:49;1.63;;;1.53;;
42600;SDS011;28229;48.856;9.088;2023-03-23T06:05:27;2.10;;;1.63;;
42600;SDS011;28229;48.856;9.088;2023-03-23T06:08:13;1.67;;;1.57;;
42600;SDS011;28229;48.856;9.088;2023-03-23T06:11:04;1.73;;;1.60;;
42600;SDS011;28229;48.856;9.088;2023-03-23T06:13:48;1.50;;;1.40;;
42600;SDS011;28229;48.856;9.088;2023-03-23T06:16:37;1.87;;;1.50;;
42600;SDS011;28229;48.856;9.088;2023-03-23T06:19:11;1.67;;;1.40;;
42600;SDS011;28229;48.856;9.088;2023-03-23T06:21:57;1.87;;;1.63;;
42600;SDS011;28229;48.856;9.088;2023-03-23T06:24:37;1.80;;;1.53;;
42600;SDS011;28229;48.856;9.088;2023-03-23T06:27:04;1.83;;;1.73;;
42600;SDS011;28229;48.856;9.088;2023-03-23T06:29:32;2.90;;;1.80;;
42600;SDS011;28229;48.856;9.088;2023-03-23T06:32:40;1.80;;;1.70;;
42600;SDS011;28229;48.856;9.088;2023-03-23T06:35:23;1.70;;;1.50;;
42600;SDS011;28229;48.856;9.088;2023-03-23T06:38:11;3.77;;;1.70;;
42600;SDS011;28229;48.856;9.088;2023-03-23T06:41:03;1.67;;;1.47;;
42600;SDS011;28229;48.856;9.088;2023-03-23T06:43:48;1.87;;;1.70;;
42600;SDS011;28229;48.856;9.088;2023-03-23T06:49:56;1.60;;;1.50;;
42600;SDS011;28229;48.856;9.088;2023-03-23T06:52:37;2.13;;;1.60;;
42600;SDS011;28229;48.856;9.088;2023-03-23T07:08:00;2.80;;;1.60;;
42600;SDS011;28229;48.856;9.088;2023-03-23T07:14:07;3.10;;;1.70;;
42600;SDS011;28229;48.856;9.088;2023-03-23T07:16:36;1.67;;;1.57;;
42600;SDS011;28229;48.856;9.088;2023-03-23T07:19:12;2.80;;;1.57;;
42600;SDS011;28229;48.856;9.088;2023-03-23T07:21:40;3.07;;;1.57;;
42600;SDS011;28229;48.856;9.088;2023-03-23T07:24:11;2.03;;;1.50;;
42600;SDS011;28229;48.856;9.088;2023-03-23T07:27:06;4.33;;;1.90;;
42600;SDS011;28229;48.856;9.088;2023-03-23T07:29:46;3.13;;;1.70;;
42600;SDS011;28229;48.856;9.088;2023-03-23T07:32:22;1.93;;;1.70;;
42600;SDS011;28229;48.856;9.088;2023-03-23T07:35:03;5.20;;;2.00;;
42600;SDS011;28229;48.856;9.088;2023-03-23T07:38:08;3.13;;;1.97;;
42600;SDS011;28229;48.856;9.088;2023-03-23T07:40:50;2.87;;;1.80;;
42600;SDS011;28229;48.856;9.088;2023-03-23T07:43:25;2.37;;;1.70;;
42600;SDS011;28229;48.856;9.088;2023-03-23T07:46:21;2.63;;;1.60;;
42600;SDS011;28229;48.856;9.088;2023-03-23T07:49:39;2.57;;;1.63;;
42600;SDS011;28229;48.856;9.088;2023-03-23T07:52:26;1.70;;;1.60;;
42600;SDS011;28229;48.856;9.088;2023-03-23T07:55:12;2.20;;;1.80;;
42600;SDS011;28229;48.856;9.088;2023-03-23T07:58:11;1.87;;;1.70;;
42600;SDS011;28229;48.856;9.088;2023-03-23T08:00:58;2.13;;;1.80;;
42600;SDS011;28229;48.856;9.088;2023-03-23T08:03:38;3.77;;;1.70;;
42600;SDS011;28229;48.856;9.088;2023-03-23T08:12:53;4.37;;;1.60;;
42600;SDS011;28229;48.856;9.088;2023-03-23T08:16:41;3.40;;;1.70;;
42600;SDS011;28229;48.856;9.088;2023-03-23T08:19:43;2.60;;;1.60;;
42600;SDS011;28229;48.856;9.088;2023-03-23T08:22:27;2.27;;;1.50;;
42600;SDS011;28229;48.856;9.088;2023-03-23T08:25:28;4.90;;;1.87;;
42600;SDS011;28229;48.856;9.088;2023-03-23T08:28:33;2.37;;;1.80;;
42600;SDS011;28229;48.856;9.088;2023-03-23T08:31:23;1.87;;;1.70;;
42600;SDS011;28229;48.856;9.088;2023-03-23T08:34:24;2.40;;;1.83;;
42600;SDS011;28229;48.856;9.088;2023-03-23T08:37:16;1.83;;;1.53;;
42600;SDS011;28229;48.856;9.088;2023-03-23T08:40:22;3.00;;;1.80;;
42600;SDS011;28229;48.856;9.088;2023-03-23T08:43:47;2.20;;;1.77;;
42600;SDS011;28229;48.856;9.088;2023-03-23T08:46:45;3.90;;;1.93;;
42600;SDS011;28229;48.856;9.088;2023-03-23T08:49:42;2.90;;;1.90;;
42600;SDS011;28229;48.856;9.088;2023-03-23T08:52:51;2.83;;;1.63;;
42600;SDS011;28229;48.856;9.088;2023-03-23T08:55:50;1.67;;;1.50;;
42600;SDS011;28229;48.856;9.088;2023-03-23T08:58:47;2.07;;;1.63;;
42600;SDS011;28229;48.856;9.088;2023-03-23T09:01:44;1.57;;;1.47;;
42600;SDS011;28229;48.856;9.088;2023-03-23T09:04:49;3.80;;;1.63;;
42600;SDS011;28229;48.856;9.088;2023-03-23T09:07:49;3.50;;;1.93;;
42600;SDS011;28229;48.856;9.088;2023-03-23T09:10:27;1.80;;;1.60;;
42600;SDS011;28229;48.856;9.088;2023-03-23T09:13:29;1.93;;;1.50;;
42600;SDS011;28229;48.856;9.088;2023-03-23T09:16:14;1.97;;;1.57;;
42600;SDS011;28229;48.856;9.088;2023-03-23T09:18:44;1.80;;;1.70;;
42600;SDS011;28229;48.856;9.088;2023-03-23T09:21:17;2.27;;;1.60;;
42600;SDS011;28229;48.856;9.088;2023-03-23T09:24:02;3.03;;;1.80;;
42600;SDS011;28229;48.856;9.088;2023-03-23T09:26:38;1.80;;;1.70;;
42600;SDS011;28229;48.856;9.088;2023-03-23T09:29:04;1.70;;;1.60;;
42600;SDS011;28229;48.856;9.088;2023-03-23T09:32:15;3.47;;;2.30;;
42600;SDS011;28229;48.856;9.088;2023-03-23T09:38:37;2.80;;;1.97;;
42600;SDS011;28229;48.856;9.088;2023-03-23T09:44:48;2.20;;;2.00;;
42600;SDS011;28229;48.856;9.088;2023-03-23T09:47:38;2.80;;;2.10;;
42600;SDS011;28229;48.856;9.088;2023-03-23T09:50:17;2.07;;;1.77;;
42600;SDS011;28229;48.856;9.088;2023-03-23T09:53:01;3.57;;;1.53;;
42600;SDS011;28229;48.856;9.088;2023-03-23T09:55:37;8.73;;;1.90;;
42600;SDS011;28229;48.856;9.088;2023-03-23T10:00:56;1.63;;;1.40;;
42600;SDS011;28229;48.856;9.088;2023-03-23T10:03:27;1.50;;;1.33;;
42600;SDS011;28229;48.856;9.088;2023-03-23T10:06:12;1.53;;;1.40;;
42600;SDS011;28229;48.856;9.088;2023-03-23T10:08:51;2.30;;;1.40;;
42600;SDS011;28229;48.856;9.088;2023-03-23T10:14:20;2.27;;;1.30;;
42600;SDS011;28229;48.856;9.088;2023-03-23T10:22:09;1.97;;;1.20;;
42600;SDS011;28229;48.856;9.088;2023-03-23T10:24:44;1.57;;;1.20;;
42600;SDS011;28229;48.856;9.088;2023-03-23T10:32:52;2.20;;;1.60;;
42600;SDS011;28229;48.856;9.088;2023-03-23T10:35:33;1.90;;;1.50;;
42600;SDS011;28229;48.856;9.088;2023-03-23T10:38:05;1.90;;;1.70;;
42600;SDS011;28229;48.856;9.088;2023-03-23T10:40:46;1.60;;;1.37;;
42600;SDS011;28229;48.856;9.088;2023-03-23T10:43:15;2.20;;;1.80;;
42600;SDS011;28229;48.856;9.088;2023-03-23T10:45:43;4.03;;;2.93;;
42600;SDS011;28229;48.856;9.088;2023-03-23T10:48:16;1.50;;;1.40;;
42600;SDS011;28229;48.856;9.088;2023-03-23T10:50:49;1.57;;;1.47;;
42600;SDS011;28229;48.856;9.088;2023-03-23T10:53:20;1.40;;;1.30;;
42600;SDS011;28229;48.856;9.088;2023-03-23T10:55:49;1.90;;;1.50;;
42600;SDS011;28229;48.856;9.088;2023-03-23T10:58:23;1.70;;;1.40;;
42600;SDS011;28229;48.856;9.088;2023-03-23T11:00:58;1.60;;;1.40;;
42600;SDS011;28229;48.856;9.088;2023-03-23T11:03:34;1.17;;;1.13;;
42600;SDS011;28229;48.856;9.088;2023-03-23T11:06:07;1.53;;;1.43;;
42600;SDS011;28229;48.856;9.088;2023-03-23T11:08:46;1.40;;;1.30;;
42600;SDS011;28229;48.856;9.088;2023-03-23T11:11:17;1.50;;;1.40;;
42600;SDS011;28229;48.856;9.088;2023-03-23T11:13:48;1.50;;;1.20;;
42600;SDS011;28229;48.856;9.088;2023-03-23T11:16:28;1.43;;;1.33;;
42600;SDS011;28229;48.856;9.088;2023-03-23T11:19:00;1.10;;;1.10;;
42600;SDS011;28229;48.856;9.088;2023-03-23T11:21:37;1.33;;;1.30;;
42600;SDS011;28229;48.856;9.088;2023-03-23T11:24:04;1.20;;;1.20;;
42600;SDS011;28229;48.856;9.088;2023-03-23T11:26:32;1.43;;;1.30;;
42600;SDS011;28229;48.856;9.088;2023-03-23T11:29:14;2.00;;;1.40;;
42600;SDS011;28229;48.856;9.088;2023-03-23T11:31:44;1.97;;;1.40;;
42600;SDS011;28229;48.856;9.088;2023-03-23T11:34:33;1.87;;;1.30;;
42600;SDS011;28229;48.856;9.088;2023-03-23T11:37:07;2.33;;;1.40;;
42600;SDS011;28229;48.856;9.088;2023-03-23T11:39:49;2.43;;;1.50;;
42600;SDS011;28229;48.856;9.088;2023-03-23T11:42:43;1.53;;;1.40;;
42600;SDS011;28229;48.856;9.088;2023-03-23T11:45:20;1.80;;;1.40;;
42600;SDS011;28229;48.856;9.088;2023-03-23T11:50:30;1.80;;;1.50;;
42600;SDS011;28229;48.856;9.088;2023-03-23T11:53:11;4.17;;;1.60;;
42600;SDS011;28229;48.856;9.088;2023-03-23T11:58:17;2.03;;;1.70;;
42600;SDS011;28229;48.856;9.088;2023-03-23T12:03:30;2.03;;;1.60;;
42600;SDS011;28229;48.856;9.088;2023-03-23T12:12:04;1.80;;;1.70;;
42600;SDS011;28229;48.856;9.088;2023-03-23T12:14:39;1.93;;;1.70;;
42600;SDS011;28229;48.856;9.088;2023-03-23T12:17:42;1.87;;;1.60;;
42600;SDS011;28229;48.856;9.088;2023-03-23T12:26:09;2.77;;;1.50;;
42600;SDS011;28229;48.856;9.088;2023-03-23T12:29:12;2.03;;;1.70;;
42600;SDS011;28229;48.856;9.088;2023-03-23T12:37:28;2.00;;;1.87;;
42600;SDS011;28229;48.856;9.088;2023-03-23T12:43:17;1.73;;;1.63;;
42600;SDS011;28229;48.856;9.088;2023-03-23T12:48:44;2.00;;;1.60;;
42600;SDS011;28229;48.856;9.088;2023-03-23T12:53:50;2.60;;;1.90;;
42600;SDS011;28229;48.856;9.088;2023-03-23T12:56:34;3.13;;;1.87;;
42600;SDS011;28229;48.856;9.088;2023-03-23T13:01:44;1.77;;;1.67;;
42600;SDS011;28229;48.856;9.088;2023-03-23T13:04:14;1.80;;;1.70;;
42600;SDS011;28229;48.856;9.088;2023-03-23T13:06:45;2.10;;;1.93;;
42600;SDS011;28229;48.856;9.088;2023-03-23T13:09:15;2.00;;;1.90;;
42600;SDS011;28229;48.856;9.088;2023-03-23T13:11:47;3.30;;;1.97;;
42600;SDS011;28229;48.856;9.088;2023-03-23T13:23:22;2.33;;;1.70;;
42600;SDS011;28229;48.856;9.088;2023-03-23T13:25:55;1.73;;;1.60;;
42600;SDS011;28229;48.856;9.088;2023-03-23T13:28:27;2.20;;;1.60;;
42600;SDS011;28229;48.856;9.088;2023-03-23T13:30:59;2.23;;;1.93;;
42600;SDS011;28229;48.856;9.088;2023-03-23T13:33:30;3.67;;;1.73;;
42600;SDS011;28229;48.856;9.088;2023-03-23T13:36:08;2.27;;;1.60;;
42600;SDS011;28229;48.856;9.088;2023-03-23T13:38:36;2.83;;;1.70;;
42600;SDS011;28229;48.856;9.088;2023-03-23T13:41:07;1.60;;;1.50;;
42600;SDS011;28229;48.856;9.088;2023-03-23T13:43:38;2.00;;;1.80;;
42600;SDS011;28229;48.856;9.088;2023-03-23T13:48:49;1.60;;;1.50;;
42600;SDS011;28229;48.856;9.088;2023-03-23T13:51:32;3.30;;;1.73;;
42600;SDS011;28229;48.856;9.088;2023-03-23T13:54:14;2.10;;;1.70;;
42600;SDS011;28229;48.856;9.088;2023-03-23T13:57:00;2.33;;;1.93;;
42600;SDS011;28229;48.856;9.088;2023-03-23T13:59:29;1.87;;;1.47;;
42600;SDS011;28229;48.856;9.088;2023-03-23T14:05:09;1.93;;;1.70;;
42600;SDS011;28229;48.856;9.088;2023-03-23T14:07:54;3.23;;;1.80;;
42600;SDS011;28229;48.856;9.088;2023-03-23T14:10:31;3.00;;;2.10;;
42600;SDS011;28229;48.856;9.088;2023-03-23T14:16:05;2.33;;;1.87;;
42600;SDS011;28229;48.856;9.088;2023-03-23T14:18:42;3.80;;;2.10;;
42600;SDS011;28229;48.856;9.088;2023-03-23T14:21:20;2.87;;;1.83;;
42600;SDS011;28229;48.856;9.088;2023-03-23T14:23:59;2.80;;;2.03;;
42600;SDS011;28229;48.856;9.088;2023-03-23T14:26:33;2.57;;;2.03;;
42600;SDS011;28229;48.856;9.088;2023-03-23T14:29:02;1.67;;;1.57;;
42600;SDS011;28229;48.856;9.088;2023-03-23T14:31:30;1.97;;;1.80;;
42600;SDS011;28229;48.856;9.088;2023-03-23T14:33:56;1.60;;;1.50;;
42600;SDS011;28229;48.856;9.088;2023-03-23T14:36:29;2.33;;;1.60;;
42600;SDS011;28229;48.856;9.088;2023-03-23T14:41:38;1.80;;;1.70;;
42600;SDS011;28229;48.856;9.088;2023-03-23T14:44:06;1.80;;;1.70;;
42600;SDS011;28229;48.856;9.088;2023-03-23T14:46:35;2.30;;;2.10;;
42600;SDS011;28229;48.856;9.088;2023-03-23T14:49:03;2.00;;;1.90;;
42600;SDS011;28229;48.856;9.088;2023-03-23T14:51:30;2.10;;;1.77;;
42600;SDS011;28229;48.856;9.088;2023-03-23T14:53:58;1.80;;;1.70;;
42600;SDS011;28229;48.856;9.088;2023-03-23T14:56:31;2.50;;;1.70;;
42600;SDS011;28229;48.856;9.088;2023-03-23T14:59:03;3.07;;;2.00;;
42600;SDS011;28229;48.856;9.088;2023-03-23T15:01:32;3.43;;;1.90;;
42600;SDS011;28229;48.856;9.088;2023-03-23T15:06:28;1.70;;;1.57;;
42600;SDS011;28229;48.856;9.088;2023-03-23T15:08:59;1.80;;;1.70;;
42600;SDS011;28229;48.856;9.088;2023-03-23T15:11:32;2.13;;;1.70;;
42600;SDS011;28229;48.856;9.088;2023-03-23T15:14:20;2.13;;;1.87;;
42600;SDS011;28229;48.856;9.088;2023-03-23T15:16:49;2.20;;;2.00;;
42600;SDS011;28229;48.856;9.088;2023-03-23T15:22:31;2.73;;;1.90;;
42600;SDS011;28229;48.856;9.088;2023-03-23T15:24:43;4.40;;;2.00;;
42600;SDS011;28229;48.856;9.088;2023-03-23T15:32:19;2.80;;;1.80;;
42600;SDS011;28229;48.856;9.088;2023-03-23T15:34:47;2.37;;;1.80;;
42600;SDS011;28229;48.856;9.088;2023-03-23T15:39:54;1.83;;;1.73;;
42600;SDS011;28229;48.856;9.088;2023-03-23T15:42:23;2.30;;;2.03;;
42600;SDS011;28229;48.856;9.088;2023-03-23T15:45:35;2.73;;;1.73;;
42600;SDS011;28229;48.856;9.088;2023-03-23T15:47:51;2.90;;;2.10;;
42600;SDS011;28229;48.856;9.088;2023-03-23T15:50:32;2.60;;;2.07;;
42600;SDS011;28229;48.856;9.088;2023-03-23T15:53:08;3.07;;;1.80;;
42600;SDS011;28229;48.856;9.088;2023-03-23T15:55:43;2.50;;;1.77;;
42600;SDS011;28229;48.856;9.088;2023-03-23T15:58:11;2.03;;;1.80;;
42600;SDS011;28229;48.856;9.088;2023-03-23T16:00:38;3.27;;;1.83;;
42600;SDS011;28229;48.856;9.088;2023-03-23T16:03:07;1.93;;;1.73;;
42600;SDS011;28229;48.856;9.088;2023-03-23T16:05:37;3.13;;;2.00;;
42600;SDS011;28229;48.856;9.088;2023-03-23T16:08:03;1.90;;;1.80;;
42600;SDS011;28229;48.856;9.088;2023-03-23T16:10:30;2.30;;;1.70;;
42600;SDS011;28229;48.856;9.088;2023-03-23T16:13:04;2.63;;;1.77;;
42600;SDS011;28229;48.856;9.088;2023-03-23T16:15:34;1.70;;;1.60;;
42600;SDS011;28229;48.856;9.088;2023-03-23T16:18:12;2.23;;;1.80;;
42600;SDS011;28229;48.856;9.088;2023-03-23T16:20:43;2.00;;;1.80;;
42600;SDS011;28229;48.856;9.088;2023-03-23T16:23:09;2.00;;;1.67;;
42600;SDS011;28229;48.856;9.088;2023-03-23T16:25:35;2.80;;;1.63;;
42600;SDS011;28229;48.856;9.088;2023-03-23T16:28:01;4.13;;;2.17;;
42600;SDS011;28229;48.856;9.088;2023-03-23T16:30:28;2.10;;;1.90;;
42600;SDS011;28229;48.856;9.088;2023-03-23T16:32:58;1.83;;;1.73;;
42600;SDS011;28229;48.856;9.088;2023-03-23T16:35:24;2.23;;;1.80;;
42600;SDS011;28229;48.856;9.088;2023-03-23T16:37:51;2.60;;;1.90;;
42600;SDS011;28229;48.856;9.088;2023-03-23T16:40:19;3.53;;;2.07;;
42600;SDS011;28229;48.856;9.088;2023-03-23T16:42:46;2.60;;;2.00;;
42600;SDS011;28229;48.856;9.088;2023-03-23T16:45:12;2.00;;;1.83;;
42600;SDS011;28229;48.856;9.088;2023-03-23T16:47:40;2.00;;;1.80;;
42600;SDS011;28229;48.856;9.088;2023-03-23T16:50:07;2.67;;;1.70;;
42600;SDS011;28229;48.856;9.088;2023-03-23T16:52:37;2.17;;;1.90;;
42600;SDS011;28229;48.856;9.088;2023-03-23T16:55:05;1.73;;;1.63;;
42600;SDS011;28229;48.856;9.088;2023-03-23T16:57:32;1.90;;;1.80;;
42600;SDS011;28229;48.856;9.088;2023-03-23T17:00:03;3.40;;;2.00;;
42600;SDS011;28229;48.856;9.088;2023-03-23T17:02:31;2.10;;;1.90;;
42600;SDS011;28229;48.856;9.088;2023-03-23T17:04:57;2.60;;;1.90;;
42600;SDS011;28229;48.856;9.088;2023-03-23T17:07:24;4.50;;;2.00;;
42600;SDS011;28229;48.856;9.088;2023-03-23T17:09:50;1.80;;;1.70;;
42600;SDS011;28229;48.856;9.088;2023-03-23T17:12:16;2.20;;;2.00;;
42600;SDS011;28229;48.856;9.088;2023-03-23T17:14:42;2.67;;;2.33;;
42600;SDS011;28229;48.856;9.088;2023-03-23T17:17:09;2.40;;;2.20;;
42600;SDS011;28229;48.856;9.088;2023-03-23T17:19:35;3.60;;;3.30;;
42600;SDS011;28229;48.856;9.088;2023-03-23T17:22:02;3.73;;;3.23;;
42600;SDS011;28229;48.856;9.088;2023-03-23T17:24:28;3.23;;;2.40;;
42600;SDS011;28229;48.856;9.088;2023-03-23T17:26:54;6.00;;;5.40;;
42600;SDS011;28229;48.856;9.088;2023-03-23T17:29:21;6.40;;;5.80;;
42600;SDS011;28229;48.856;9.088;2023-03-23T17:31:50;3.90;;;3.50;;
42600;SDS011;28229;48.856;9.088;2023-03-23T17:34:16;11.40;;;8.57;;
42600;SDS011;28229;48.856;9.088;2023-03-23T17:36:43;4.80;;;4.40;;
42600;SDS011;28229;48.856;9.088;2023-03-23T17:39:09;3.27;;;2.97;;
42600;SDS011;28229;48.856;9.088;2023-03-23T17:41:35;5.97;;;4.43;;
42600;SDS011;28229;48.856;9.088;2023-03-23T17:44:02;12.90;;;9.37;;
42600;SDS011;28229;48.856;9.088;2023-03-23T17:46:28;4.27;;;3.73;;
42600;SDS011;28229;48.856;9.088;2023-03-23T17:48:54;6.10;;;4.80;;
42600;SDS011;28229;48.856;9.088;2023-03-23T17:51:20;5.33;;;3.83;;